プライア の空港の天気 - METARとTAF

プライア国際空港 ( GVNP / RAI ) - カーボベルデ サンティアゴ島, プライア
飛行場実況気象(Metar)
観測時間09/25 19:00 CVT (09/25 20:00 UTC)
風向・風速北 5m/s
視程10km以上
天気現象
少しの雲 雲底高度 490m
気温26℃
湿度79%
気圧1011hPa
METARGVNP 252000Z 36009KT 9999 FEW016 26/22 Q1011 NOSIG
過去の天気等 Google飛行場航空写真 Wunderground天気予報

過去48時間のMETAR

飛行場予報(TAF)
発表時間: 9/25 16:00 CVT (9/25 17:00 UTC)
予報対象時間: 25日17時 CVT ~ 26日23時 CVT
風向・風速北 5m/s
視程10km以上
少しの雲 雲底高度 490m
26日0時 CVT ~ 26日6時 CVT に一時的に
少しの雲 雲底高度 340m
全天の8割程度の雲 雲底高度 520m
TAF GVNP 251700Z 2518/2624 36010KT 9999 FEW016
TEMPO 2601/2607 FEW011 BKN017